Time;durP1;ratioP1;P1;durP2;ratioP2;P2;SDS_P1;SDS_P2;PMS_P1;PMS_P2;Temp;Humidity;BMP_temperature;BMP_pressure;BME280_temperature;BME280_humidity;BME280_pressure;Samples;Min_cycle;Max_cycle;Signal;HPM_P1;HPM_P2
2022/07/18 00:01:48;;;;;;;18.25;7.85;;;;;;;18.00;57.17;102305.75;5014333;28;20109;-59
2022/07/18 00:04:14;;;;;;;16.77;8.57;;;;;;;17.90;57.28;102306.81;5013615;28;20073;-60
2022/07/18 00:06:39;;;;;;;16.80;8.50;;;;;;;17.84;58.10;102310.06;5013793;28;20028;-60
2022/07/18 00:09:04;;;;;;;19.02;8.55;;;;;;;17.79;58.83;102308.22;5014045;28;20018;-60
2022/07/18 00:11:30;;;;;;;19.33;8.88;;;;;;;17.66;58.82;102298.78;4996362;28;20038;-60
2022/07/18 00:13:55;;;;;;;19.40;8.90;;;;;;;17.62;59.75;102298.59;5014176;28;20038;-60
2022/07/18 00:16:20;;;;;;;18.63;8.30;;;;;;;17.62;58.85;102303.34;5013792;28;20022;-60
2022/07/18 00:18:46;;;;;;;19.92;9.02;;;;;;;17.62;59.01;102294.94;5013617;28;20077;-60
2022/07/18 00:21:11;;;;;;;18.33;8.25;;;;;;;17.57;59.35;102298.72;5013377;28;20133;-60
2022/07/18 00:23:36;;;;;;;17.42;8.68;;;;;;;17.47;60.32;102293.41;5013978;28;20112;-60
2022/07/18 00:26:03;;;;;;;17.38;8.73;;;;;;;17.44;59.92;102294.03;5013846;28;20453;-60
2022/07/18 00:28:29;;;;;;;16.95;8.45;;;;;;;17.45;59.72;102290.91;5013860;28;20481;-60
2022/07/18 00:30:54;;;;;;;16.50;8.40;;;;;;;17.44;60.48;102285.63;5013422;28;20030;-61
2022/07/18 00:33:19;;;;;;;18.70;9.40;;;;;;;17.35;60.83;102293.13;5013229;28;20026;-60
2022/07/18 00:35:45;;;;;;;19.65;9.23;;;;;;;17.30;60.42;102291.28;5013340;28;20386;-60
2022/07/18 00:38:10;;;;;;;18.83;9.20;;;;;;;17.27;60.20;102287.16;5013337;28;20471;-61
2022/07/18 00:40:36;;;;;;;18.13;8.70;;;;;;;17.29;60.00;102284.03;5013602;28;20409;-60
2022/07/18 00:43:01;;;;;;;19.27;8.43;;;;;;;17.25;60.17;102283.84;4995640;28;20411;-60
2022/07/18 00:45:27;;;;;;;19.25;9.32;;;;;;;17.22;59.98;102278.06;5013398;28;20113;-60
2022/07/18 00:47:52;;;;;;;18.10;8.30;;;;;;;17.21;59.28;102274.44;5013502;28;20025;-60
2022/07/18 00:50:18;;;;;;;17.20;7.90;;;;;;;17.17;58.90;102279.00;5012873;28;20034;-60
2022/07/18 00:52:44;;;;;;;18.83;8.45;;;;;;;17.12;59.31;102271.56;4995504;28;20064;-60
2022/07/18 00:55:10;;;;;;;17.63;8.68;;;;;;;17.07;60.80;102273.66;5012817;28;20062;-60
2022/07/18 00:57:36;;;;;;;19.13;8.80;;;;;;;17.01;61.04;102272.97;5013261;28;20493;-60
2022/07/18 01:02:49;;;;;;;22.80;8.77;;;;;;;16.95;60.71;102269.44;5013619;28;20116;-60
2022/07/18 01:05:14;;;;;;;18.30;8.27;;;;;;;16.89;61.59;102264.25;5012952;28;20112;-60
2022/07/18 01:07:40;;;;;;;19.05;8.50;;;;;;;16.87;61.33;102260.94;5011627;28;20064;-60
2022/07/18 01:10:06;;;;;;;18.90;8.88;;;;;;;16.80;61.29;102259.41;5013044;28;20021;-60
2022/07/18 01:12:31;;;;;;;17.95;8.43;;;;;;;16.83;60.82;102263.53;5012590;28;20552;-60
2022/07/18 01:14:58;;;;;;;19.65;8.93;;;;;;;16.74;60.77;102257.03;5012623;28;20026;-60
2022/07/18 01:17:24;;;;;;;19.52;8.93;;;;;;;16.69;60.39;102252.41;5012451;28;20455;-60
2022/07/18 01:19:49;;;;;;;17.95;9.20;;;;;;;16.59;61.37;102255.41;5012534;28;20069;-60
2022/07/18 01:22:18;;;;;;;18.50;9.15;;;;;;;16.53;61.27;102249.97;5012896;28;20060;-60
2022/07/18 01:24:44;;;;;;;19.10;9.15;;;;;;;16.55;61.88;102257.19;5012348;28;20072;-60
2022/07/18 01:27:17;;;;;;;18.15;8.85;;;;;;;16.49;61.47;102259.28;5012387;28;20057;-60
2022/07/18 01:29:44;;;;;;;20.40;9.07;;;;;;;16.47;61.21;102255.97;5012408;28;20084;-60
2022/07/18 01:32:09;;;;;;;18.20;8.95;;;;;;;16.42;60.77;102253.28;5011920;28;20269;-60
2022/07/18 01:34:35;;;;;;;17.70;8.45;;;;;;;16.46;61.39;102257.94;5012262;28;20524;-60
2022/07/18 01:37:01;;;;;;;17.65;8.63;;;;;;;16.42;61.30;102256.09;5012515;28;20561;-60
2022/07/18 01:39:27;;;;;;;18.95;8.85;;;;;;;16.40;61.36;102253.59;4994157;28;20037;-59
2022/07/18 01:42:00;;;;;;;18.35;8.80;;;;;;;16.31;61.59;102247.91;5012253;28;20041;-60
2022/07/18 01:44:26;;;;;;;18.98;8.50;;;;;;;16.34;61.83;102255.66;5012286;28;20556;-60
2022/07/18 01:46:52;;;;;;;18.08;8.50;;;;;;;16.29;61.20;102244.59;5011707;28;20026;-59
2022/07/18 01:49:18;;;;;;;19.35;8.52;;;;;;;16.24;61.84;102252.25;5012199;28;20104;-60
2022/07/18 01:51:48;;;;;;;20.10;9.13;;;;;;;16.21;61.99;102253.72;5011660;28;20033;-60
2022/07/18 01:54:14;;;;;;;19.25;8.60;;;;;;;16.20;61.60;102252.06;5011958;28;20040;-59
2022/07/18 01:56:39;;;;;;;19.17;8.15;;;;;;;16.18;61.03;102241.19;5011842;28;20025;-60
2022/07/18 01:59:04;;;;;;;19.02;8.90;;;;;;;16.16;61.12;102246.25;4994080;28;20109;-59
2022/07/18 02:01:30;;;;;;;20.45;9.23;;;;;;;16.13;61.21;102251.66;5011772;28;20157;-60
2022/07/18 02:03:55;;;;;;;19.25;9.05;;;;;;;16.10;62.09;102249.47;5012347;28;20113;-60
2022/07/18 02:06:20;;;;;;;18.30;8.43;;;;;;;16.05;60.76;102245.66;5011591;28;20091;-60
2022/07/18 02:08:46;;;;;;;18.70;9.05;;;;;;;16.02;61.79;102243.47;5011914;28;20112;-60
2022/07/18 02:11:11;;;;;;;18.08;8.35;;;;;;;16.00;61.26;102244.91;5011568;28;20475;-60
2022/07/18 02:13:37;;;;;;;19.30;9.40;;;;;;;15.96;61.72;102239.13;5011462;28;20034;-59
2022/07/18 02:16:03;;;;;;;20.35;8.98;;;;;;;15.92;61.77;102240.06;5011862;28;20053;-60
2022/07/18 02:18:32;;;;;;;19.73;9.70;;;;;;;15.88;62.65;102235.09;5011388;28;20116;-60
2022/07/18 02:20:57;;;;;;;20.27;9.63;;;;;;;15.86;62.55;102228.16;5011476;28;20465;-60
2022/07/18 02:23:23;;;;;;;19.85;9.32;;;;;;;15.78;62.92;102226.88;5011228;28;20084;-60
2022/07/18 02:25:48;;;;;;;20.48;9.85;;;;;;;15.72;63.42;102214.16;5011466;28;20030;-60
2022/07/18 02:28:13;;;;;;;21.67;9.40;;;;;;;15.70;62.81;102222.00;4993902;28;20021;-60
2022/07/18 02:30:39;;;;;;;18.85;9.80;;;;;;;15.66;63.55;102221.81;5011527;28;20057;-60
2022/07/18 02:33:04;;;;;;;20.27;9.80;;;;;;;15.62;63.58;102217.16;5011781;28;20033;-60
2022/07/18 02:35:29;;;;;;;20.38;9.60;;;;;;;15.62;63.75;102229.13;5011367;28;20018;-60
2022/07/18 02:37:55;;;;;;;20.20;10.05;;;;;;;15.63;62.18;102225.19;5011137;28;20038;-60
2022/07/18 02:40:20;;;;;;;19.02;10.00;;;;;;;15.56;63.22;102224.78;4993863;28;20018;-60
2022/07/18 02:42:45;;;;;;;21.02;9.45;;;;;;;15.56;62.79;102213.63;5011208;28;20457;-60
2022/07/18 02:45:11;;;;;;;20.10;10.38;;;;;;;15.54;63.40;102222.28;5011281;28;20158;-60
2022/07/18 02:47:36;;;;;;;19.17;9.52;;;;;;;15.45;64.46;102218.53;5011120;28;20028;-60
2022/07/18 02:50:02;;;;;;;20.58;9.90;;;;;;;15.43;64.20;102226.41;5010901;28;20358;-60
2022/07/18 02:52:28;;;;;;;18.77;9.63;;;;;;;15.28;65.12;102222.72;5011327;28;20103;-60
2022/07/18 02:54:53;;;;;;;19.95;9.63;;;;;;;15.27;65.13;102220.25;5011024;28;20447;-60
2022/07/18 02:57:18;;;;;;;19.48;10.07;;;;;;;15.24;64.86;102224.50;5011399;28;20109;-60
2022/07/18 02:59:45;;;;;;;19.95;9.60;;;;;;;15.23;65.19;102230.34;5011616;28;20353;-60
2022/07/18 03:02:10;;;;;;;19.15;10.50;;;;;;;15.16;66.08;102232.72;5011345;28;20026;-60
2022/07/18 03:04:35;;;;;;;19.20;9.50;;;;;;;15.18;65.31;102222.09;5011417;28;20052;-60
2022/07/18 03:07:01;;;;;;;22.05;10.43;;;;;;;15.17;65.18;102212.06;5010955;28;20029;-60
2022/07/18 03:09:27;;;;;;;19.42;8.95;;;;;;;15.17;64.93;102212.88;4992944;28;20029;-58
2022/07/18 03:11:54;;;;;;;19.92;10.00;;;;;;;15.16;65.76;102215.97;5010891;28;20029;-60
2022/07/18 03:14:19;;;;;;;20.38;9.70;;;;;;;15.08;66.08;102212.75;5010909;28;20022;-60
2022/07/18 03:16:45;;;;;;;23.00;10.60;;;;;;;15.03;66.34;102207.25;5011072;28;20454;-60
2022/07/18 03:19:10;;;;;;;20.55;9.98;;;;;;;15.03;66.18;102198.88;5010581;28;20050;-60
2022/07/18 03:21:35;;;;;;;18.77;9.82;;;;;;;14.98;65.91;102193.41;5010980;28;20033;-60
2022/07/18 03:24:01;;;;;;;19.90;9.88;;;;;;;15.00;65.68;102195.88;4993198;28;20026;-60
2022/07/18 03:26:26;;;;;;;20.30;9.75;;;;;;;14.97;66.36;102198.16;5010719;28;20022;-60
2022/07/18 03:28:52;;;;;;;21.73;10.18;;;;;;;14.94;66.09;102195.13;5010996;28;20061;-60
2022/07/18 03:31:17;;;;;;;21.30;10.10;;;;;;;14.92;65.87;102192.66;5011612;28;20076;-60
2022/07/18 03:33:42;;;;;;;20.40;10.27;;;;;;;14.87;66.36;102178.81;5013941;28;20343;-60
2022/07/18 03:36:08;;;;;;;19.48;10.25;;;;;;;14.90;66.66;102188.53;5014037;28;20108;-60
2022/07/18 03:38:35;;;;;;;20.88;10.20;;;;;;;14.86;66.33;102179.97;5013949;28;20029;-60
2022/07/18 03:41:01;;;;;;;21.05;9.90;;;;;;;14.86;66.48;102190.25;5014302;28;20036;-59
2022/07/18 03:43:26;;;;;;;20.60;9.93;;;;;;;14.87;65.70;102192.75;5014292;28;20116;-60
2022/07/18 03:45:51;;;;;;;20.85;9.65;;;;;;;14.86;64.32;102193.03;5014336;28;20026;-59
2022/07/18 03:48:16;;;;;;;19.67;9.75;;;;;;;14.85;65.28;102194.16;5013761;28;20378;-60
2022/07/18 03:50:42;;;;;;;20.58;11.05;;;;;;;14.90;66.05;102188.53;5014108;28;20204;-59
2022/07/18 03:53:07;;;;;;;21.00;10.15;;;;;;;14.85;66.98;102188.59;5013617;28;20040;-60
2022/07/18 03:55:32;;;;;;;20.17;10.07;;;;;;;14.88;66.42;102186.03;5013304;28;20113;-59
2022/07/18 03:57:58;;;;;;;19.85;10.88;;;;;;;14.91;66.04;102182.66;5013514;28;20030;-59
2022/07/18 04:00:23;;;;;;;19.90;10.13;;;;;;;14.94;66.20;102181.22;5013641;28;20113;-59
2022/07/18 04:02:48;;;;;;;21.23;11.27;;;;;;;14.93;66.43;102182.34;5013755;28;20129;-59
2022/07/18 04:05:15;;;;;;;20.60;10.73;;;;;;;14.97;65.07;102177.81;5013518;28;20085;-59
2022/07/18 04:07:41;;;;;;;20.45;11.20;;;;;;;14.95;66.26;102178.13;5013583;28;20041;-59
2022/07/18 04:10:08;;;;;;;19.65;10.25;;;;;;;15.00;65.53;102179.16;5013513;28;20033;-60
2022/07/18 04:12:33;;;;;;;21.95;10.68;;;;;;;15.03;66.18;102182.16;5013572;28;20124;-59
2022/07/18 04:14:58;;;;;;;21.80;10.82;;;;;;;14.98;66.64;102180.28;5013228;28;20065;-58
2022/07/18 04:17:24;;;;;;;20.10;10.77;;;;;;;14.98;66.34;102173.91;5012720;28;20109;-58
2022/07/18 04:19:50;;;;;;;21.88;10.80;;;;;;;15.02;66.29;102168.56;5013279;28;20030;-58
2022/07/18 04:22:16;;;;;;;21.92;11.07;;;;;;;15.01;66.69;102169.69;5013265;28;20488;-59
2022/07/18 04:24:41;;;;;;;20.45;11.02;;;;;;;15.05;66.52;102159.59;5013489;28;20030;-59
2022/07/18 04:27:06;;;;;;;19.63;10.90;;;;;;;15.04;67.34;102169.09;5012977;28;20113;-59
2022/07/18 04:29:32;;;;;;;22.30;11.23;;;;;;;15.01;66.96;102175.25;5013299;28;20113;-59
2022/07/18 04:31:58;;;;;;;20.00;10.95;;;;;;;15.02;66.61;102172.16;5012959;28;20091;-59
2022/07/18 04:34:23;;;;;;;22.48;11.27;;;;;;;15.10;66.27;102162.28;5013435;28;20025;-59
2022/07/18 04:36:49;;;;;;;21.52;12.10;;;;;;;15.18;65.97;102163.56;4994960;28;20046;-59
2022/07/18 04:39:16;;;;;;;22.33;11.25;;;;;;;15.20;65.84;102156.53;5012941;28;20382;-59
2022/07/18 04:41:41;;;;;;;21.45;11.43;;;;;;;15.30;65.06;102158.31;5012982;28;20022;-59
2022/07/18 04:44:07;;;;;;;22.27;11.18;;;;;;;15.35;64.85;102151.81;5013096;28;20166;-59
2022/07/18 04:46:32;;;;;;;24.23;12.00;;;;;;;15.35;65.15;102149.84;5012828;28;20029;-59
2022/07/18 04:48:57;;;;;;;21.33;11.68;;;;;;;15.40;64.67;102151.72;5012799;28;20116;-59
2022/07/18 04:51:22;;;;;;;21.83;12.07;;;;;;;15.43;64.77;102154.72;5012636;28;20026;-59
2022/07/18 04:53:48;;;;;;;23.25;12.90;;;;;;;15.47;64.91;102154.13;5012528;28;20044;-59
2022/07/18 04:56:13;;;;;;;22.65;12.63;;;;;;;15.54;64.38;102152.56;5012584;28;20022;-59
2022/07/18 04:58:38;;;;;;;22.33;13.05;;;;;;;15.57;64.88;102146.38;5012386;28;20094;-60
2022/07/18 05:01:04;;;;;;;20.98;12.48;;;;;;;15.70;64.42;102149.47;5012547;28;20030;-60
2022/07/18 05:03:29;;;;;;;20.75;12.10;;;;;;;15.75;63.75;102139.06;5012488;28;20454;-61
2022/07/18 05:05:55;;;;;;;21.63;12.98;;;;;;;15.77;63.65;102144.31;5012639;28;20038;-60
2022/07/18 05:08:20;;;;;;;22.02;12.48;;;;;;;15.91;63.23;102149.91;5012743;28;20459;-60
2022/07/18 05:10:45;;;;;;;21.27;12.48;;;;;;;15.96;63.83;102161.00;5012271;28;20038;-61
2022/07/18 05:13:11;;;;;;;22.40;13.00;;;;;;;15.98;64.14;102163.47;5012697;28;20419;-60
2022/07/18 05:15:36;;;;;;;22.55;12.27;;;;;;;16.03;64.04;102163.34;5012596;28;20167;-60
2022/07/18 05:18:02;;;;;;;25.25;12.82;;;;;;;16.15;63.62;102160.84;5012224;28;20133;-59
2022/07/18 05:20:27;;;;;;;24.35;12.60;;;;;;;16.27;63.23;102168.69;5011953;28;20037;-59
2022/07/18 05:22:54;;;;;;;21.67;12.10;;;;;;;16.40;62.95;102164.22;5012341;28;20033;-59
2022/07/18 05:25:22;;;;;;;22.20;12.68;;;;;;;16.49;62.71;102153.13;5012194;28;20051;-60
2022/07/18 05:27:48;;;;;;;22.50;12.48;;;;;;;16.62;62.71;102151.44;5012474;28;20113;-60
2022/07/18 05:30:14;;;;;;;22.42;12.07;;;;;;;16.76;61.52;102160.59;5012119;28;20484;-60
2022/07/18 05:32:41;;;;;;;21.70;12.07;;;;;;;16.87;61.53;102157.53;5012631;28;20030;-59
2022/07/18 05:35:08;;;;;;;21.30;11.40;;;;;;;16.95;60.96;102152.03;5012124;28;20397;-59
2022/07/18 05:37:35;;;;;;;22.23;12.00;;;;;;;17.03;60.95;102147.66;4994406;28;20486;-61
2022/07/18 05:40:01;;;;;;;20.92;11.57;;;;;;;17.14;60.43;102153.81;5011690;28;20378;-60
2022/07/18 05:42:26;;;;;;;21.65;11.55;;;;;;;17.22;60.30;102147.44;5012433;28;20104;-61
2022/07/18 05:44:51;;;;;;;23.17;11.65;;;;;;;17.29;59.79;102153.41;5012258;28;20033;-60
2022/07/18 05:47:16;;;;;;;22.77;11.27;;;;;;;17.39;60.24;102157.06;5012474;28;20117;-60
2022/07/18 05:49:42;;;;;;;21.77;11.38;;;;;;;17.41;59.77;102157.56;4994149;28;20037;-59
2022/07/18 05:52:07;;;;;;;21.75;10.90;;;;;;;17.45;58.98;102156.63;5011832;28;20477;-60
2022/07/18 05:54:33;;;;;;;21.00;10.88;;;;;;;17.55;59.43;102160.28;5011437;28;20061;-60
2022/07/18 05:56:58;;;;;;;22.23;11.43;;;;;;;17.65;58.68;102159.19;5011670;28;20025;-60
2022/07/18 05:59:23;;;;;;;20.83;11.10;;;;;;;17.75;58.64;102164.50;5012116;28;20021;-60
2022/07/18 06:01:49;;;;;;;21.88;11.02;;;;;;;17.86;58.62;102162.22;5011464;28;20029;-60
2022/07/18 06:04:15;;;;;;;20.92;11.27;;;;;;;17.93;58.52;102169.00;5011539;28;20072;-59
2022/07/18 06:06:40;;;;;;;20.20;11.00;;;;;;;17.95;58.06;102160.28;5011998;28;20077;-60
2022/07/18 06:09:08;;;;;;;22.25;11.38;;;;;;;17.96;58.50;102163.88;5011483;28;20465;-59
2022/07/18 06:11:33;;;;;;;22.80;11.75;;;;;;;18.01;58.21;102164.59;4993502;28;20369;-59
2022/07/18 06:13:58;;;;;;;21.25;12.15;;;;;;;18.03;58.47;102151.09;5011163;28;20037;-59
2022/07/18 06:16:24;;;;;;;22.08;11.68;;;;;;;18.14;58.22;102150.78;4993799;28;20406;-59
2022/07/18 06:18:49;;;;;;;20.88;11.75;;;;;;;18.30;58.25;102145.56;5011292;28;20045;-59
2022/07/18 06:21:14;;;;;;;24.15;11.70;;;;;;;18.44;57.84;102148.22;5010947;28;20030;-59
2022/07/18 06:23:40;;;;;;;22.05;11.63;;;;;;;18.57;57.39;102154.81;5010795;28;20038;-59
2022/07/18 06:26:06;;;;;;;22.73;11.85;;;;;;;18.69;57.76;102150.19;5011214;28;20462;-59
2022/07/18 06:28:31;;;;;;;23.90;11.85;;;;;;;18.78;56.51;102147.38;5011282;28;20388;-59
2022/07/18 06:30:57;;;;;;;22.05;11.98;;;;;;;18.91;56.93;102147.53;5001013;28;20503;-59
2022/07/18 06:33:23;;;;;;;21.85;12.38;;;;;;;18.98;56.76;102147.91;4991473;28;20199;-59
2022/07/18 06:35:49;;;;;;;21.67;11.85;;;;;;;19.12;57.01;102130.88;4974245;28;20034;-60
2022/07/18 06:38:15;;;;;;;21.65;12.68;;;;;;;19.25;56.92;102127.03;4991439;28;20041;-59
2022/07/18 06:40:41;;;;;;;23.10;13.27;;;;;;;19.39;56.80;102128.81;4991486;28;20362;-60
2022/07/18 06:43:07;;;;;;;22.10;12.63;;;;;;;19.48;56.57;102122.00;4991345;28;20038;-60
2022/07/18 06:45:32;;;;;;;21.38;12.02;;;;;;;19.51;56.24;102123.28;4991486;28;20040;-61
2022/07/18 06:47:58;;;;;;;20.83;12.60;;;;;;;19.53;56.81;102122.97;4991275;28;20102;-59
2022/07/18 06:50:23;;;;;;;24.85;12.55;;;;;;;19.55;56.86;102115.03;4991300;28;20113;-60
2022/07/18 06:52:48;;;;;;;21.85;12.18;;;;;;;19.61;56.31;102116.50;4991508;28;20113;-59
2022/07/18 06:55:14;;;;;;;22.23;12.80;;;;;;;19.65;55.95;102123.06;4973588;28;20061;-60
2022/07/18 06:57:40;;;;;;;21.13;12.50;;;;;;;19.75;56.86;102113.44;4991382;28;20113;-59
2022/07/18 07:00:08;;;;;;;22.08;12.00;;;;;;;19.91;55.79;102120.16;4990934;28;20049;-60
2022/07/18 07:02:34;;;;;;;24.48;13.43;;;;;;;20.04;55.79;102121.06;4991100;28;20030;-59
2022/07/18 07:05:00;;;;;;;23.85;12.52;;;;;;;20.22;55.52;102116.16;4991211;28;20042;-59
2022/07/18 07:07:25;;;;;;;22.52;12.52;;;;;;;20.35;55.37;102116.25;4976412;28;20030;-60
2022/07/18 07:09:51;;;;;;;23.35;13.27;;;;;;;20.47;55.66;102123.91;4995023;28;20030;-58
2022/07/18 07:12:16;;;;;;;23.92;13.43;;;;;;;20.55;55.11;102123.81;4977195;28;20052;-59
2022/07/18 07:14:42;;;;;;;23.33;13.57;;;;;;;20.65;56.25;102128.22;4994851;28;20030;-60
2022/07/18 07:17:07;;;;;;;24.98;14.38;;;;;;;20.80;54.17;102132.41;4976500;28;20063;-59
2022/07/18 07:19:32;;;;;;;22.25;12.98;;;;;;;20.93;54.23;102132.44;4993916;28;20122;-59
2022/07/18 07:21:58;;;;;;;22.90;12.57;;;;;;;21.03;53.86;102138.47;4994118;28;20253;-60
2022/07/18 07:24:23;;;;;;;20.75;12.02;;;;;;;21.12;52.72;102131.91;4994298;28;20366;-59
2022/07/18 07:26:49;;;;;;;22.50;12.13;;;;;;;21.25;52.52;102136.41;4994418;28;20081;-60
2022/07/18 07:29:14;;;;;;;21.73;12.38;;;;;;;21.42;52.33;102126.94;4993554;28;20022;-60
2022/07/18 07:31:42;;;;;;;21.08;11.80;;;;;;;21.53;51.84;102123.66;4993511;28;20026;-61
2022/07/18 07:34:08;;;;;;;21.90;12.55;;;;;;;21.65;52.37;102135.78;4976288;28;20092;-60
2022/07/18 07:36:33;;;;;;;20.38;12.02;;;;;;;21.78;50.69;102125.31;4993684;28;20026;-60
2022/07/18 07:38:58;;;;;;;23.00;11.95;;;;;;;21.87;50.10;102125.22;4993997;28;20038;-60
2022/07/18 07:41:24;;;;;;;20.38;11.15;;;;;;;22.03;49.96;102128.13;4976439;28;20030;-62
2022/07/18 07:43:49;;;;;;;25.05;12.30;;;;;;;22.11;49.13;102112.25;4994325;28;20080;-60
2022/07/18 07:46:14;;;;;;;21.02;11.45;;;;;;;22.18;48.97;102118.13;4994225;28;20026;-60
2022/07/18 07:48:40;;;;;;;22.02;12.13;;;;;;;22.34;48.97;102123.03;4994311;28;20026;-60
2022/07/18 07:51:05;;;;;;;22.63;11.60;;;;;;;22.42;48.18;102107.97;4993947;28;20030;-60
2022/07/18 07:53:31;;;;;;;21.40;11.80;;;;;;;22.58;48.28;102116.50;4993798;28;20073;-59
2022/07/18 07:55:57;;;;;;;22.95;12.00;;;;;;;22.72;48.58;102107.63;4993772;28;20034;-59
2022/07/18 07:58:22;;;;;;;23.10;12.02;;;;;;;22.86;48.27;102104.41;4994071;28;20073;-60
2022/07/18 08:00:47;;;;;;;21.25;11.55;;;;;;;22.87;48.17;102106.84;4993535;28;20045;-60
2022/07/18 08:03:13;;;;;;;22.95;12.20;;;;;;;22.90;48.47;102088.41;4974870;28;20062;-60
2022/07/18 08:05:45;;;;;;;21.55;11.30;;;;;;;23.05;49.19;102081.09;4993603;28;20132;-60
2022/07/18 08:08:11;;;;;;;22.43;11.57;;;;;;;23.20;49.25;102077.53;4993700;28;20086;-59
2022/07/18 08:10:36;;;;;;;22.60;11.27;;;;;;;23.34;48.75;102071.44;4975851;28;20031;-59
2022/07/18 08:13:01;;;;;;;21.05;11.25;;;;;;;23.46;47.75;102067.66;4993603;28;20098;-59
2022/07/18 08:15:27;;;;;;;20.05;10.75;;;;;;;23.61;47.45;102071.66;4993073;28;20037;-60
2022/07/18 08:17:53;;;;;;;19.92;10.30;;;;;;;23.69;45.94;102078.31;4991718;28;20109;-60
2022/07/18 08:20:19;;;;;;;20.50;10.57;;;;;;;23.82;46.46;102085.47;4974490;28;20377;-60
2022/07/18 08:22:56;;;;;;;17.55;9.10;;;;;;;23.93;44.27;102090.56;4992490;28;20030;-60
2022/07/18 08:25:22;;;;;;;16.90;8.05;;;;;;;23.98;41.52;102088.28;4992290;28;20111;-60
2022/07/18 08:27:48;;;;;;;18.85;8.38;;;;;;;24.01;41.27;102085.94;4992109;28;20026;-60
2022/07/18 08:30:13;;;;;;;18.40;8.32;;;;;;;24.06;40.31;102099.75;4992098;28;20093;-60
2022/07/18 08:32:39;;;;;;;16.65;8.20;;;;;;;24.19;39.82;102095.63;4991880;28;20045;-60
2022/07/18 08:35:05;;;;;;;15.88;7.80;;;;;;;24.45;40.63;102103.44;4992033;28;20488;-60
2022/07/18 08:37:30;;;;;;;17.35;8.30;;;;;;;24.52;39.55;102096.28;4992290;28;20383;-60
2022/07/18 08:39:56;;;;;;;14.95;7.93;;;;;;;24.67;39.64;102092.56;4991933;28;20034;-61
2022/07/18 08:42:25;;;;;;;14.63;7.90;;;;;;;24.79;39.64;102093.63;4991812;28;20546;-60
2022/07/18 08:44:52;;;;;;;18.40;8.10;;;;;;;24.94;39.02;102103.19;4992167;28;20119;-60
2022/07/18 08:47:17;;;;;;;14.50;7.68;;;;;;;25.10;39.08;102088.94;4990443;28;20026;-60
2022/07/18 08:49:43;;;;;;;17.17;7.30;;;;;;;25.27;39.01;102091.25;4991320;28;20053;-61
2022/07/18 08:52:08;;;;;;;16.88;7.53;;;;;;;25.31;37.97;102091.31;4991488;28;20097;-60
2022/07/18 08:54:35;;;;;;;16.08;7.72;;;;;;;25.47;38.91;102082.72;4991754;28;20065;-60
2022/07/18 08:57:01;;;;;;;18.85;8.23;;;;;;;25.59;37.01;102090.19;4991290;28;20411;-61
2022/07/18 08:59:26;;;;;;;17.17;7.80;;;;;;;25.60;36.30;102089.00;4991508;28;20597;-61
2022/07/18 09:01:51;;;;;;;16.05;7.80;;;;;;;25.62;36.23;102089.44;4991361;28;20178;-60
2022/07/18 09:04:37;;;;;;;16.67;7.65;;;;;;;25.70;37.28;102089.16;4989991;28;20045;-60
2022/07/18 09:07:03;;;;;;;15.93;8.18;;;;;;;25.78;37.23;102087.25;4991385;28;20040;-59
2022/07/18 09:09:30;;;;;;;16.33;7.70;;;;;;;25.85;36.33;102084.50;4989867;28;20057;-60
2022/07/18 09:11:58;;;;;;;16.58;8.10;;;;;;;26.00;37.27;102074.19;4973366;28;20083;-60
2022/07/18 09:14:40;;;;;;;16.63;7.80;;;;;;;26.18;37.03;102084.19;4974005;28;20031;-61
2022/07/18 09:17:09;;;;;;;18.75;8.50;;;;;;;26.27;36.76;102081.88;4992103;28;20018;-60
2022/07/18 09:19:37;;;;;;;17.83;7.88;;;;;;;26.32;35.61;102075.84;4991757;28;20126;-62
2022/07/18 09:22:17;;;;;;;14.57;8.00;;;;;;;26.56;36.65;102079.41;4991866;28;20578;-61
2022/07/18 09:24:59;;;;;;;16.60;8.13;;;;;;;26.63;36.53;102073.78;4974685;28;20034;-62
2022/07/18 09:27:29;;;;;;;14.68;7.38;;;;;;;26.67;34.04;102077.50;4992004;28;20037;-60
2022/07/18 09:30:21;;;;;;;15.57;7.80;;;;;;;26.81;36.22;102085.38;4989623;28;20466;-61
2022/07/18 09:33:05;;;;;;;15.63;7.57;;;;;;;26.83;34.93;102074.44;4992377;28;20018;-61
2022/07/18 09:35:34;;;;;;;17.70;7.90;;;;;;;27.02;34.38;102081.09;4992015;28;20457;-60
2022/07/18 09:38:11;;;;;;;17.25;7.43;;;;;;;27.19;34.81;102086.16;4991847;28;20462;-61
2022/07/18 09:40:42;;;;;;;14.82;7.82;;;;;;;27.10;34.21;102082.81;4989190;28;20049;-60
2022/07/18 09:43:10;;;;;;;13.50;7.20;;;;;;;27.19;33.70;102079.66;4990644;28;20034;-60
2022/07/18 09:45:43;;;;;;;17.48;8.00;;;;;;;27.31;34.14;102085.03;4991508;28;20066;-62
2022/07/18 09:48:10;;;;;;;16.50;7.63;;;;;;;27.49;33.83;102088.03;4991366;28;20022;-62
2022/07/18 09:50:40;;;;;;;15.82;7.43;;;;;;;27.49;32.84;102082.34;4991131;28;20080;-62
2022/07/18 09:53:30;;;;;;;15.77;8.02;;;;;;;27.75;33.36;102088.22;4991560;28;20113;-62
2022/07/18 09:56:01;;;;;;;16.45;7.72;;;;;;;27.74;32.92;102073.19;4991435;28;20137;-64
2022/07/18 09:58:29;;;;;;;14.57;7.50;;;;;;;27.82;32.11;102080.56;4991185;28;20026;-61
2022/07/18 10:00:56;;;;;;;17.15;8.23;;;;;;;28.08;33.44;102078.69;4990960;28;20053;-60
2022/07/18 10:03:22;;;;;;;14.60;7.88;;;;;;;28.30;33.19;102084.50;4989822;28;20399;-60
2022/07/18 10:05:50;;;;;;;13.80;7.30;;;;;;;28.53;32.65;102074.81;4993629;28;20485;-61
2022/07/18 10:08:20;;;;;;;14.98;7.53;;;;;;;28.63;31.31;102072.00;4998445;28;20030;-60
2022/07/18 10:10:47;;;;;;;16.48;7.95;;;;;;;28.74;31.21;102063.50;5001240;28;20438;-61
2022/07/18 10:13:14;;;;;;;15.73;8.00;;;;;;;28.76;30.92;102065.97;5002001;28;20022;-60
2022/07/18 10:15:42;;;;;;;15.25;7.32;;;;;;;28.94;32.13;102075.34;4994188;28;20038;-60
2022/07/18 10:18:10;;;;;;;15.57;7.57;;;;;;;28.94;31.21;102061.13;4990559;28;20437;-62
2022/07/18 10:20:40;;;;;;;15.40;8.20;;;;;;;29.04;31.25;102067.22;4990883;28;20101;-62
2022/07/18 10:23:16;;;;;;;14.80;7.93;;;;;;;29.29;31.50;102061.50;4993917;28;20032;-62
2022/07/18 10:25:42;;;;;;;14.98;7.53;;;;;;;29.38;30.53;102066.84;5010587;28;20065;-63
2022/07/18 10:28:08;;;;;;;15.70;7.38;;;;;;;29.34;30.27;102066.00;5010125;28;20129;-61
2022/07/18 10:30:37;;;;;;;18.15;7.75;;;;;;;29.30;30.60;102068.84;5010216;28;20033;-62
2022/07/18 10:33:23;;;;;;;14.85;7.32;;;;;;;29.37;30.99;102059.50;5010163;28;20029;-62
2022/07/18 10:36:22;;;;;;;15.68;7.45;;;;;;;29.56;32.22;102064.78;5010265;28;20040;-62
2022/07/18 10:39:07;;;;;;;13.75;7.03;;;;;;;29.73;31.94;102054.56;4957180;28;20045;-62
2022/07/18 10:41:39;;;;;;;14.27;7.22;;;;;;;29.84;31.15;102062.28;4991968;28;20080;-61
2022/07/18 10:44:26;;;;;;;13.25;7.28;;;;;;;29.97;31.29;102068.38;4992685;28;20060;-62
2022/07/18 10:47:05;;;;;;;13.10;7.20;;;;;;;29.86;30.61;102051.25;5010115;28;20076;-62
2022/07/18 10:49:45;;;;;;;14.23;7.50;;;;;;;29.97;31.52;102057.78;5002640;28;20158;-59
2022/07/18 10:52:23;;;;;;;17.08;7.93;;;;;;;30.03;31.53;102047.59;5000150;28;20113;-61
2022/07/18 10:55:08;;;;;;;15.85;7.78;;;;;;;30.00;30.76;102050.44;4990464;28;20499;-61
2022/07/18 10:57:35;;;;;;;14.35;7.28;;;;;;;29.97;30.33;102042.72;4990270;28;20049;-61
2022/07/18 11:00:08;;;;;;;15.07;7.65;;;;;;;30.04;30.45;102056.94;4972517;28;20130;-61
2022/07/18 11:02:41;;;;;;;14.35;7.68;;;;;;;30.15;31.22;102054.03;4989003;28;20030;-61
2022/07/18 11:05:25;;;;;;;13.20;7.72;;;;;;;30.26;30.71;102054.81;4990192;28;20549;-61
2022/07/18 11:07:56;;;;;;;14.48;7.82;;;;;;;30.31;30.22;102050.72;4990158;28;20368;-61
2022/07/18 11:10:41;;;;;;;15.13;7.55;;;;;;;30.46;30.48;102043.72;4989931;28;20034;-62
2022/07/18 11:13:25;;;;;;;16.05;7.55;;;;;;;30.55;30.39;102051.84;4989882;28;20154;-60
2022/07/18 11:16:14;;;;;;;16.92;7.57;;;;;;;30.57;30.27;102040.81;4990395;28;20032;-61
2022/07/18 11:18:43;;;;;;;16.30;7.85;;;;;;;30.50;29.46;102038.78;4989931;28;20047;-62